Time;durP1;ratioP1;P1;durP2;ratioP2;P2;SDS_P1;SDS_P2;PMS_P1;PMS_P2;Temp;Humidity;BMP_temperature;BMP_pressure;BME280_temperature;BME280_humidity;BME280_pressure;Samples;Min_cycle;Max_cycle;Signal;HPM_P1;HPM_P2
2021/11/02 00:01:12;;;;;;;;;1.00;1.00;;;;;;;;6285622;22;45376;-81
2021/11/02 00:03:37;;;;;;;;;1.00;1.00;;;;;;;;6257834;22;45409;-82
2021/11/02 00:06:03;;;;;;;;;1.33;1.33;;;;;;;;6283803;22;45643;-82
2021/11/02 00:08:28;;;;;;;;;2.67;1.00;;;;;;;;6253759;22;45294;-81
2021/11/02 00:10:53;;;;;;;;;1.33;1.33;;;;;;;;6256186;22;45141;-82
2021/11/02 00:13:20;;;;;;;;;1.00;1.00;;;;;;;;6280206;22;45316;-82
2021/11/02 00:15:47;;;;;;;;;1.33;1.33;;;;;;;;6286761;22;45345;-82
2021/11/02 00:18:15;;;;;;;;;0.00;0.00;;;;;;;;6256870;22;44758;-82
2021/11/02 00:20:40;;;;;;;;;1.33;1.00;;;;;;;;6285718;22;45455;-81
2021/11/02 00:23:08;;;;;;;;;2.00;1.00;;;;;;;;6285724;22;45416;-82
2021/11/02 00:25:33;;;;;;;;;1.33;1.33;;;;;;;;6256743;22;46961;-82
2021/11/02 00:28:01;;;;;;;;;1.00;1.00;;;;;;;;6256954;22;45456;-82
2021/11/02 00:30:27;;;;;;;;;3.00;1.00;;;;;;;;6257998;22;45261;-82
2021/11/02 00:32:59;;;;;;;;;0.67;0.67;;;;;;;;6283997;22;45628;-82
2021/11/02 00:35:26;;;;;;;;;0.00;0.00;;;;;;;;6286212;22;46097;-82
2021/11/02 00:37:52;;;;;;;;;0.00;0.00;;;;;;;;6283853;22;45357;-82
2021/11/02 00:40:19;;;;;;;;;0.67;0.67;;;;;;;;6257008;22;45319;-82
2021/11/02 00:45:40;;;;;;;;;0.67;0.67;;;;;;;;6270938;22;45447;-82
2021/11/02 00:48:12;;;;;;;;;2.67;1.00;;;;;;;;6221366;22;45291;-82
2021/11/02 00:50:38;;;;;;;;;1.00;1.00;;;;;;;;6220038;22;45226;-82
2021/11/02 00:53:04;;;;;;;;;0.00;0.00;;;;;;;;6222256;22;45302;-82
2021/11/02 00:55:30;;;;;;;;;2.33;0.00;;;;;;;;6197030;22;47062;-82
2021/11/02 00:57:56;;;;;;;;;1.00;1.00;;;;;;;;6225553;22;45571;-83
2021/11/02 01:00:24;;;;;;;;;0.67;0.67;;;;;;;;6222436;22;45374;-83
2021/11/02 01:02:50;;;;;;;;;0.00;0.00;;;;;;;;6223807;22;45343;-82
2021/11/02 01:05:15;;;;;;;;;1.00;1.00;;;;;;;;6221835;22;47183;-82
2021/11/02 01:07:41;;;;;;;;;0.67;0.00;;;;;;;;6223432;22;45288;-82
2021/11/02 01:10:12;;;;;;;;;2.00;1.00;;;;;;;;6221146;22;45029;-82
2021/11/02 01:12:38;;;;;;;;;3.00;0.67;;;;;;;;6221801;22;44870;-82
2021/11/02 01:15:05;;;;;;;;;1.00;0.33;;;;;;;;6224815;22;45477;-82
2021/11/02 01:17:31;;;;;;;;;1.00;1.00;;;;;;;;6223872;22;45173;-82
2021/11/02 01:19:56;;;;;;;;;1.00;1.00;;;;;;;;6221341;22;45352;-82
2021/11/02 01:22:21;;;;;;;;;0.67;0.67;;;;;;;;6223353;22;45296;-82
2021/11/02 01:24:47;;;;;;;;;1.00;1.00;;;;;;;;6221516;22;47376;-82
2021/11/02 01:27:13;;;;;;;;;0.67;0.67;;;;;;;;6221877;22;45389;-82
2021/11/02 01:29:39;;;;;;;;;1.00;1.00;;;;;;;;6226161;22;45349;-82
2021/11/02 01:32:04;;;;;;;;;1.67;0.67;;;;;;;;6224510;22;45362;-82
2021/11/02 01:34:29;;;;;;;;;0.00;0.00;;;;;;;;6225404;22;45307;-82
2021/11/02 01:36:55;;;;;;;;;0.00;0.00;;;;;;;;6225942;22;45834;-82
2021/11/02 01:39:21;;;;;;;;;1.33;0.00;;;;;;;;6222782;22;45389;-82
2021/11/02 01:41:46;;;;;;;;;1.00;1.00;;;;;;;;6227112;22;45458;-83
2021/11/02 01:44:12;;;;;;;;;1.33;1.33;;;;;;;;6223461;22;47380;-82
2021/11/02 01:46:40;;;;;;;;;1.00;1.00;;;;;;;;6234719;22;45414;-82
2021/11/02 01:49:06;;;;;;;;;1.00;1.00;;;;;;;;6254375;22;45212;-82
2021/11/02 01:51:32;;;;;;;;;1.00;1.00;;;;;;;;6252335;22;45344;-82
2021/11/02 01:53:58;;;;;;;;;0.00;0.00;;;;;;;;6253644;22;45262;-82
2021/11/02 01:56:23;;;;;;;;;1.00;1.00;;;;;;;;6253020;22;45322;-83
2021/11/02 01:58:51;;;;;;;;;2.33;1.00;;;;;;;;6255802;22;44744;-82
2021/11/02 02:01:35;;;;;;;;;2.00;2.00;;;;;;;;6258081;22;44846;-82
2021/11/02 02:04:23;;;;;;;;;4.00;1.00;;;;;;;;6254500;22;45388;-82
2021/11/02 02:07:18;;;;;;;;;2.00;1.00;;;;;;;;6236291;22;45365;-83
2021/11/02 02:09:58;;;;;;;;;1.33;0.00;;;;;;;;6130106;23;45469;-83
2021/11/02 02:12:28;;;;;;;;;0.33;0.33;;;;;;;;6105983;23;45512;-83
2021/11/02 02:14:58;;;;;;;;;0.67;0.67;;;;;;;;6104325;23;45400;-83
2021/11/02 02:17:43;;;;;;;;;1.00;1.00;;;;;;;;6104914;23;45289;-83
2021/11/02 02:20:14;;;;;;;;;0.67;0.67;;;;;;;;6129096;23;45482;-82
2021/11/02 02:22:48;;;;;;;;;1.00;1.00;;;;;;;;6129940;23;45774;-82
2021/11/02 02:25:19;;;;;;;;;1.00;1.00;;;;;;;;6104909;23;46970;-83
2021/11/02 02:27:45;;;;;;;;;1.00;1.00;;;;;;;;6130538;23;45417;-82
2021/11/02 02:30:11;;;;;;;;;1.00;0.00;;;;;;;;6106349;23;45414;-83
2021/11/02 02:32:40;;;;;;;;;1.00;1.00;;;;;;;;6131652;23;45786;-83
2021/11/02 02:35:08;;;;;;;;;0.67;0.67;;;;;;;;6133001;23;46810;-83
2021/11/02 02:37:35;;;;;;;;;1.67;1.00;;;;;;;;6109870;23;44808;-83
2021/11/02 02:40:01;;;;;;;;;0.00;0.00;;;;;;;;6107799;23;45430;-83
2021/11/02 02:42:27;;;;;;;;;1.00;1.00;;;;;;;;6133079;23;45402;-83
2021/11/02 02:44:53;;;;;;;;;1.00;1.00;;;;;;;;6132225;23;45370;-83
2021/11/02 02:47:20;;;;;;;;;0.00;0.00;;;;;;;;6273862;22;44859;-83
2021/11/02 02:49:47;;;;;;;;;1.67;1.67;;;;;;;;6286050;22;45326;-83
2021/11/02 02:52:15;;;;;;;;;1.00;1.00;;;;;;;;6284272;22;45310;-83
2021/11/02 02:54:44;;;;;;;;;0.33;0.33;;;;;;;;6255562;22;46641;-83
2021/11/02 02:57:10;;;;;;;;;1.00;1.00;;;;;;;;6285514;22;45305;-83
2021/11/02 02:59:37;;;;;;;;;1.00;1.00;;;;;;;;6255733;22;45283;-83
2021/11/02 03:02:03;;;;;;;;;0.33;0.33;;;;;;;;6255119;22;45276;-83
2021/11/02 03:04:33;;;;;;;;;1.00;1.00;;;;;;;;6283158;22;45501;-82
2021/11/02 03:07:00;;;;;;;;;2.00;0.67;;;;;;;;6285480;22;45642;-83
2021/11/02 03:09:25;;;;;;;;;1.00;1.00;;;;;;;;6258636;22;45298;-83
2021/11/02 03:11:50;;;;;;;;;2.00;1.00;;;;;;;;6260145;22;45303;-83
2021/11/02 03:14:22;;;;;;;;;0.00;0.00;;;;;;;;6286707;22;46309;-83
2021/11/02 03:49:56;;;;;;;;;1.00;1.00;;;;;;;;6285672;22;45613;-82
2021/11/02 03:55:03;;;;;;;;;1.67;1.67;;;;;;;;6285337;22;45424;-82
2021/11/02 03:57:54;;;;;;;;;1.00;1.00;;;;;;;;6258115;22;46892;-83
2021/11/02 04:31:16;;;;;;;;;2.67;2.67;;;;;;;;6249401;22;45378;-82
2021/11/02 05:46:38;;;;;;;;;1.00;1.00;;;;;;;;6128591;23;45351;-83
2021/11/02 05:48:18;;;;;;;;;1.00;1.00;;;;;;;;6222080;22;45023;-83
2021/11/02 05:56:12;;;;;;;;;1.00;1.00;;;;;;;;6256911;22;45357;-82
2021/11/02 06:10:00;;;;;;;;;1.00;1.00;;;;;;;;6254172;22;45369;-82
2021/11/02 06:28:50;;;;;;;;;0.00;0.00;;;;;;;;6257258;22;44742;-82
2021/11/02 06:31:21;;;;;;;;;1.00;1.00;;;;;;;;6257120;22;45730;-82
2021/11/02 06:42:03;;;;;;;;;1.00;1.00;;;;;;;;6258419;22;44885;-82
2021/11/02 07:23:50;;;;;;;;;1.00;1.00;;;;;;;;6286937;22;44769;-82
2021/11/02 08:51:00;;;;;;;;;1.00;1.00;;;;;;;;6168656;22;46131;-83
2021/11/02 08:53:35;;;;;;;;;3.33;2.00;;;;;;;;6231192;22;44791;-82
2021/11/02 08:56:16;;;;;;;;;2.00;2.00;;;;;;;;6255964;22;45127;-82
2021/11/02 08:58:56;;;;;;;;;2.00;2.00;;;;;;;;6258487;22;45334;-82
2021/11/02 09:02:01;;;;;;;;;1.00;1.00;;;;;;;;6259525;22;45250;-81
2021/11/02 09:05:03;;;;;;;;;2.00;1.00;;;;;;;;6188147;22;44903;-82
2021/11/02 09:07:30;;;;;;;;;0.67;0.67;;;;;;;;6230777;22;47067;-82
2021/11/02 09:19:28;;;;;;;;;0.67;0.67;;;;;;;;6226304;22;45684;-81
2021/11/02 09:35:03;;;;;;;;;1.00;1.00;;;;;;;;6107304;23;45293;-81
2021/11/02 09:37:54;;;;;;;;;0.00;0.00;;;;;;;;6135234;23;45285;-81
2021/11/02 09:46:05;;;;;;;;;1.67;1.67;;;;;;;;6238554;22;45275;-80
2021/11/02 09:48:42;;;;;;;;;1.00;1.00;;;;;;;;6109619;23;45342;-81
2021/11/02 09:58:23;;;;;;;;;5.67;4.33;;;;;;;;6076003;23;45388;-83
2021/11/02 10:00:57;;;;;;;;;3.00;3.00;;;;;;;;6076227;23;45379;-84
2021/11/02 10:03:31;;;;;;;;;2.33;1.00;;;;;;;;6077109;23;45391;-83
2021/11/02 10:09:59;;;;;;;;;6.00;4.33;;;;;;;;6073852;23;45397;-81
2021/11/02 10:16:29;;;;;;;;;;;;;;;;;;;;;
2021/11/02 10:19:30;;;;;;;;;;;;;;;;;;;;;
2021/11/02 10:49:30;;;;;;;;;3.33;2.33;;;;;;;;6250583;22;45418;-81
2021/11/02 10:55:24;;;;;;;;;3.00;3.00;;;;;;;;6222530;22;45415;-81
2021/11/02 11:04:30;;;;;;;;;;;;;;;;;;;;;
2021/11/02 11:07:50;;;;;;;;;;;;;;;;;;;;;
2021/11/02 11:10:26;;;;;;;;;2.00;2.00;;;;;;;;6108360;23;67716;-83
2021/11/02 11:13:23;;;;;;;;;1.67;1.67;;;;;;;;6108933;23;45276;-80
2021/11/02 11:22:50;;;;;;;;;4.00;2.67;;;;;;;;6019103;23;44757;-80
2021/11/02 11:28:53;;;;;;;;;1.67;1.67;;;;;;;;5928824;24;45632;-81
2021/11/02 11:37:42;;;;;;;;;2.00;2.00;;;;;;;;5906381;24;45328;-82
2021/11/02 11:46:39;;;;;;;;;4.00;4.00;;;;;;;;6142356;22;46525;-82
2021/11/02 11:49:24;;;;;;;;;3.00;3.00;;;;;;;;6198338;22;45816;-80
2021/11/02 11:52:08;;;;;;;;;1.00;1.00;;;;;;;;6224563;22;45568;-81
2021/11/02 11:54:44;;;;;;;;;2.00;1.67;;;;;;;;6223431;22;45426;-82
2021/11/02 11:57:10;;;;;;;;;2.00;2.00;;;;;;;;6224541;22;45726;-81
2021/11/02 11:59:43;;;;;;;;;3.00;2.00;;;;;;;;6206760;22;45633;-81
2021/11/02 12:05:43;;;;;;;;;1.00;1.00;;;;;;;;6228432;22;45280;-80
2021/11/02 12:18:38;;;;;;;;;4.33;3.00;;;;;;;;6203538;22;45802;-81
2021/11/02 12:36:05;;;;;;;;;2.00;2.00;;;;;;;;6230918;22;45228;-82
2021/11/02 12:42:20;;;;;;;;;2.67;2.67;;;;;;;;6189192;23;44977;-82
2021/11/02 12:45:08;;;;;;;;;2.00;1.00;;;;;;;;6050381;23;44821;-82
2021/11/02 12:51:44;;;;;;;;;;;;;;;;;;;;;
2021/11/02 12:54:18;;;;;;;;;8.33;8.00;;;;;;;;6112502;23;72334;-83
2021/11/02 12:57:39;;;;;;;;;2.00;2.00;;;;;;;;6114100;23;44800;-82
2021/11/02 13:00:04;;;;;;;;;3.00;2.00;;;;;;;;6108685;22;45471;-79
2021/11/02 13:02:42;;;;;;;;;0.00;0.00;;;;;;;;6226864;22;46869;-80
2021/11/02 13:24:18;;;;;;;;;;;;;;;;;;;;;
2021/11/02 13:26:55;;;;;;;;;1.33;1.33;;;;;;;;6219594;22;45458;-82
2021/11/02 13:32:47;;;;;;;;;;;;;;;;;;;;;
2021/11/02 14:17:22;;;;;;;;;1.00;1.00;;;;;;;;6203217;22;44867;-78
2021/11/02 14:19:48;;;;;;;;;0.75;0.75;;;;;;;;6227380;22;45457;-78
2021/11/02 14:31:52;;;;;;;;;1.00;0.00;;;;;;;;6131364;23;45356;-79
2021/11/02 14:41:08;;;;;;;;;2.00;2.00;;;;;;;;6103687;23;44886;-79
2021/11/02 14:44:10;;;;;;;;;;;;;;;;;;;;;
2021/11/02 14:50:03;;;;;;;;;0.00;0.00;;;;;;;;6132307;23;45586;-79
2021/11/02 14:58:59;;;;;;;;;1.00;1.00;;;;;;;;6079450;23;45456;-80
2021/11/02 15:01:29;;;;;;;;;1.50;1.50;;;;;;;;6064593;23;45410;-81
2021/11/02 15:04:10;;;;;;;;;2.00;1.00;;;;;;;;6086935;23;45531;-80
2021/11/02 15:10:10;;;;;;;;;3.00;1.00;;;;;;;;5960183;23;45400;-80
2021/11/02 15:12:53;;;;;;;;;1.00;1.00;;;;;;;;5959357;23;47106;-79
2021/11/02 15:18:19;;;;;;;;;0.25;0.25;;;;;;;;6074804;23;45798;-79
2021/11/02 15:27:09;;;;;;;;;2.00;2.00;;;;;;;;6133263;23;45369;-81
2021/11/02 15:35:45;;;;;;;;;4.00;3.00;;;;;;;;6133143;23;45311;-82
2021/11/02 15:38:43;;;;;;;;;;;;;;;;;;;;;
2021/11/02 15:41:27;;;;;;;;;1.67;1.67;;;;;;;;6192817;22;68836;-80
2021/11/02 15:44:23;;;;;;;;;1.00;1.00;;;;;;;;6256130;22;45306;-78
2021/11/02 15:50:58;;;;;;;;;2.33;1.33;;;;;;;;6235449;22;45599;-81
2021/11/02 15:56:14;;;;;;;;;3.33;3.00;;;;;;;;6102540;23;45381;-78
2021/11/02 16:11:54;;;;;;;;;;;;;;;;;;;;;
2021/11/02 16:24:08;;;;;;;;;;;;;;;;;;;;;
2021/11/02 16:36:20;;;;;;;;;;;;;;;;;;;;;
2021/11/02 16:46:28;;;;;;;;;12.33;11.67;;;;;;;;6067476;23;45435;-79
2021/11/02 16:49:41;;;;;;;;;;;;;;;;;;;;;
2021/11/02 16:52:28;;;;;;;;;11.33;10.00;;;;;;;;6039966;23;73157;-80
2021/11/02 16:55:30;;;;;;;;;8.00;7.00;;;;;;;;6015257;23;45855;-81
2021/11/02 16:58:21;;;;;;;;;10.00;8.00;;;;;;;;5903708;24;45561;-81
2021/11/02 17:01:05;;;;;;;;;8.00;7.33;;;;;;;;5905278;24;46990;-80
2021/11/02 17:45:37;;;;;;;;;5.00;4.00;;;;;;;;6229483;22;45449;-81
2021/11/02 17:48:41;;;;;;;;;7.00;5.00;;;;;;;;6227681;22;47498;-81
2021/11/02 17:51:23;;;;;;;;;7.00;7.00;;;;;;;;6223590;22;44769;-81
2021/11/02 17:56:57;;;;;;;;;6.67;6.67;;;;;;;;6256387;22;44776;-81
2021/11/02 17:59:22;;;;;;;;;10.33;10.33;;;;;;;;6228827;22;46819;-81
2021/11/02 18:01:51;;;;;;;;;10.67;9.33;;;;;;;;6228446;22;44730;-80
2021/11/02 18:07:27;;;;;;;;;16.00;12.33;;;;;;;;6256596;22;44825;-80
2021/11/02 18:10:02;;;;;;;;;11.67;11.67;;;;;;;;6224564;22;46868;-81
2021/11/02 18:12:54;;;;;;;;;;;;;;;;;;;;;
2021/11/02 18:15:38;;;;;;;;;10.00;8.67;;;;;;;;6250772;22;68739;-81
2021/11/02 18:21:13;;;;;;;;;14.00;11.67;;;;;;;;6155680;23;46236;-81
2021/11/02 18:23:43;;;;;;;;;12.67;12.00;;;;;;;;6132956;23;45467;-81
2021/11/02 18:26:37;;;;;;;;;13.00;12.33;;;;;;;;6158466;23;45455;-80
2021/11/02 18:35:49;;;;;;;;;10.33;9.33;;;;;;;;6043712;23;45433;-81
2021/11/02 18:38:17;;;;;;;;;10.50;10.50;;;;;;;;6040181;23;45333;-81
2021/11/02 18:40:43;;;;;;;;;8.33;8.33;;;;;;;;6040691;23;45464;-81
2021/11/02 18:43:08;;;;;;;;;7.33;7.33;;;;;;;;6042691;23;45592;-81
2021/11/02 18:45:34;;;;;;;;;11.33;11.33;;;;;;;;6029975;23;45366;-81
2021/11/02 18:48:00;;;;;;;;;11.67;11.00;;;;;;;;6013844;23;45347;-80
2021/11/02 18:50:31;;;;;;;;;11.00;9.33;;;;;;;;6014896;23;45495;-80
2021/11/02 18:52:56;;;;;;;;;11.00;11.00;;;;;;;;6012891;23;46605;-80
2021/11/02 19:04:39;;;;;;;;;7.33;7.33;;;;;;;;6070154;23;45324;-79
2021/11/02 19:07:04;;;;;;;;;8.67;7.00;;;;;;;;6103801;23;45435;-80
2021/11/02 19:09:30;;;;;;;;;8.00;8.00;;;;;;;;6206431;22;45388;-79
2021/11/02 19:11:55;;;;;;;;;7.67;7.67;;;;;;;;6197140;22;45443;-80
2021/11/02 19:14:21;;;;;;;;;7.67;6.67;;;;;;;;6196126;22;47144;-80
2021/11/02 19:16:49;;;;;;;;;8.00;6.00;;;;;;;;6222262;22;45405;-80
2021/11/02 19:19:18;;;;;;;;;8.67;8.00;;;;;;;;6221227;22;45180;-80
2021/11/02 19:21:46;;;;;;;;;9.00;9.00;;;;;;;;6195635;22;45312;-80
2021/11/02 19:24:21;;;;;;;;;6.00;6.00;;;;;;;;6193356;22;46705;-80
2021/11/02 19:29:53;;;;;;;;;8.00;8.00;;;;;;;;6222968;22;45374;-80
2021/11/02 19:32:37;;;;;;;;;8.00;6.67;;;;;;;;6196226;22;45802;-80
2021/11/02 19:35:15;;;;;;;;;6.00;6.00;;;;;;;;6190416;22;46930;-80
2021/11/02 19:38:09;;;;;;;;;9.33;8.00;;;;;;;;6165045;23;45466;-80
2021/11/02 19:40:38;;;;;;;;;8.00;8.00;;;;;;;;6168127;23;45449;-80
2021/11/02 19:43:31;;;;;;;;;6.67;6.67;;;;;;;;6166000;23;45331;-80
2021/11/02 19:45:56;;;;;;;;;8.00;8.00;;;;;;;;6163497;23;45440;-80
2021/11/02 19:48:27;;;;;;;;;9.33;8.33;;;;;;;;6163086;23;45421;-80
2021/11/02 19:50:53;;;;;;;;;9.67;9.00;;;;;;;;6165225;23;45619;-80
2021/11/02 19:53:22;;;;;;;;;8.00;6.00;;;;;;;;6192093;22;44861;-81
2021/11/02 19:55:48;;;;;;;;;10.33;10.00;;;;;;;;6165113;23;46916;-79
2021/11/02 19:58:16;;;;;;;;;8.00;8.00;;;;;;;;6188694;23;45386;-79
2021/11/02 20:00:42;;;;;;;;;8.67;8.00;;;;;;;;6189983;23;45233;-79
2021/11/02 20:03:08;;;;;;;;;12.00;9.67;;;;;;;;6165092;22;44863;-79
2021/11/02 20:06:11;;;;;;;;;9.00;9.00;;;;;;;;6173392;22;45421;-79
2021/11/02 20:08:44;;;;;;;;;10.67;9.33;;;;;;;;6195411;22;45316;-79
2021/11/02 20:11:25;;;;;;;;;8.67;8.67;;;;;;;;6189797;22;45235;-80
2021/11/02 20:13:57;;;;;;;;;10.33;8.00;;;;;;;;6191250;22;44855;-79
2021/11/02 20:16:23;;;;;;;;;10.67;9.00;;;;;;;;6191430;22;46272;-79
2021/11/02 20:19:17;;;;;;;;;11.67;10.00;;;;;;;;6165855;22;45532;-80
2021/11/02 20:21:47;;;;;;;;;11.00;8.00;;;;;;;;6047336;23;45746;-79
2021/11/02 20:24:27;;;;;;;;;;;;;;;;;;;;;
2021/11/02 20:27:09;;;;;;;;;8.33;8.00;;;;;;;;6070708;23;74112;-80
2021/11/02 20:29:35;;;;;;;;;8.33;8.00;;;;;;;;6071399;23;45334;-80
2021/11/02 20:32:01;;;;;;;;;9.33;9.33;;;;;;;;6072316;23;44806;-80
2021/11/02 20:34:26;;;;;;;;;9.33;8.00;;;;;;;;6071875;23;45557;-79
2021/11/02 20:40:00;;;;;;;;;17.33;14.33;;;;;;;;6064206;23;45521;-80
2021/11/02 20:42:33;;;;;;;;;8.33;8.33;;;;;;;;6070167;23;45470;-80
2021/11/02 20:45:02;;;;;;;;;7.00;7.00;;;;;;;;6069939;23;45440;-80
2021/11/02 20:47:58;;;;;;;;;11.00;8.00;;;;;;;;6068028;23;45286;-80
2021/11/02 20:53:43;;;;;;;;;12.00;11.00;;;;;;;;5992391;23;45596;-80
2021/11/02 20:56:44;;;;;;;;;13.00;11.00;;;;;;;;6013217;23;45599;-80
2021/11/02 20:59:14;;;;;;;;;12.33;10.67;;;;;;;;5967686;23;45363;-80
2021/11/02 21:02:08;;;;;;;;;;;;;;;;;;;;;
2021/11/02 21:04:36;;;;;;;;;12.33;11.33;;;;;;;;5982334;23;69425;-80
2021/11/02 21:07:27;;;;;;;;;10.33;9.67;;;;;;;;5961871;23;45512;-80
2021/11/02 21:09:56;;;;;;;;;16.33;13.00;;;;;;;;6005565;23;47184;-80
2021/11/02 21:12:24;;;;;;;;;17.33;13.33;;;;;;;;6006294;23;45891;-80
2021/11/02 21:14:51;;;;;;;;;13.67;12.67;;;;;;;;5959876;23;44885;-80
2021/11/02 21:17:30;;;;;;;;;16.67;13.00;;;;;;;;5985322;23;45121;-80
2021/11/02 21:20:01;;;;;;;;;12.67;11.00;;;;;;;;5983999;23;45437;-80
2021/11/02 21:22:42;;;;;;;;;;;;;;;;;;;;;
2021/11/02 21:25:08;;;;;;;;;12.67;12.33;;;;;;;;5984062;23;68616;-80
2021/11/02 21:27:33;;;;;;;;;13.00;13.00;;;;;;;;6012927;23;45598;-80
2021/11/02 21:29:59;;;;;;;;;13.33;13.33;;;;;;;;6069665;23;45342;-80
2021/11/02 21:32:41;;;;;;;;;13.33;12.33;;;;;;;;6071493;23;45403;-80
2021/11/02 21:35:08;;;;;;;;;12.00;12.00;;;;;;;;6119701;22;45408;-79
2021/11/02 21:37:33;;;;;;;;;14.00;14.00;;;;;;;;6193127;22;45542;-80
2021/11/02 21:39:58;;;;;;;;;16.00;14.33;;;;;;;;6192815;23;45313;-80
2021/11/02 21:43:04;;;;;;;;;16.33;15.00;;;;;;;;6189839;23;45171;-80
2021/11/02 21:45:40;;;;;;;;;15.33;15.00;;;;;;;;6190615;23;45441;-80
2021/11/02 21:48:05;;;;;;;;;15.67;15.67;;;;;;;;6219087;22;45248;-80
2021/11/02 21:50:37;;;;;;;;;16.67;16.00;;;;;;;;6194846;22;46632;-80
2021/11/02 21:56:14;;;;;;;;;12.00;12.00;;;;;;;;6223000;22;45462;-80
2021/11/02 21:58:45;;;;;;;;;10.67;10.67;;;;;;;;6196441;22;45353;-79
2021/11/02 22:01:11;;;;;;;;;9.67;9.67;;;;;;;;6221500;22;47779;-79
2021/11/02 22:03:38;;;;;;;;;12.33;10.33;;;;;;;;6195680;22;45352;-80
2021/11/02 22:06:03;;;;;;;;;10.00;9.33;;;;;;;;6170163;22;45550;-80
2021/11/02 22:08:28;;;;;;;;;13.00;10.00;;;;;;;;6222090;22;45413;-79
2021/11/02 22:10:57;;;;;;;;;9.00;7.00;;;;;;;;6222222;22;46028;-80
2021/11/02 22:13:22;;;;;;;;;12.33;10.33;;;;;;;;6223269;22;45404;-80
2021/11/02 22:15:50;;;;;;;;;11.67;11.33;;;;;;;;6170786;22;46021;-80
2021/11/02 22:18:15;;;;;;;;;13.00;10.00;;;;;;;;6224649;22;45367;-80
2021/11/02 22:21:07;;;;;;;;;9.67;9.33;;;;;;;;6195000;22;46405;-80
2021/11/02 22:23:39;;;;;;;;;14.00;9.00;;;;;;;;6220832;22;45669;-80
2021/11/02 22:26:05;;;;;;;;;11.00;11.00;;;;;;;;6192878;22;45499;-80
2021/11/02 22:28:30;;;;;;;;;13.00;12.00;;;;;;;;6195368;22;45355;-80
2021/11/02 22:31:14;;;;;;;;;14.67;12.00;;;;;;;;6194401;22;48184;-79
2021/11/02 22:33:39;;;;;;;;;10.00;10.00;;;;;;;;6220986;22;45451;-80
2021/11/02 22:36:05;;;;;;;;;14.67;14.00;;;;;;;;6221539;22;45320;-80
2021/11/02 22:38:30;;;;;;;;;16.00;13.33;;;;;;;;6222584;22;45431;-80
2021/11/02 22:40:55;;;;;;;;;13.33;11.00;;;;;;;;6223000;22;45802;-80
2021/11/02 22:43:21;;;;;;;;;10.00;10.00;;;;;;;;6194658;22;44918;-80
2021/11/02 22:45:47;;;;;;;;;16.67;11.00;;;;;;;;6191716;22;45722;-80
2021/11/02 22:48:12;;;;;;;;;10.33;10.33;;;;;;;;6193671;22;45181;-80
2021/11/02 22:50:54;;;;;;;;;12.00;12.00;;;;;;;;6193814;22;46581;-80
2021/11/02 22:53:21;;;;;;;;;15.67;12.33;;;;;;;;6193162;22;45402;-80
2021/11/02 22:55:46;;;;;;;;;13.33;11.67;;;;;;;;6170101;22;45451;-81
2021/11/02 22:58:16;;;;;;;;;14.67;11.00;;;;;;;;6222016;22;45453;-80
2021/11/02 23:00:44;;;;;;;;;9.00;9.00;;;;;;;;6192917;22;45374;-80
2021/11/02 23:03:10;;;;;;;;;9.67;9.67;;;;;;;;6195027;22;45439;-80
2021/11/02 23:05:37;;;;;;;;;11.00;11.00;;;;;;;;6194843;22;44832;-80
2021/11/02 23:08:13;;;;;;;;;11.00;9.00;;;;;;;;6222390;22;45448;-80
2021/11/02 23:10:44;;;;;;;;;8.33;6.33;;;;;;;;6220609;22;46180;-80
2021/11/02 23:13:11;;;;;;;;;13.67;13.67;;;;;;;;6194447;22;45834;-80
2021/11/02 23:15:46;;;;;;;;;18.00;17.00;;;;;;;;6195533;22;45718;-80
2021/11/02 23:21:46;;;;;;;;;;;;;;;;;;;;;
2021/11/02 23:24:27;;;;;;;;;22.67;22.67;;;;;;;;6156370;23;45431;-80
2021/11/02 23:26:54;;;;;;;;;23.00;18.67;;;;;;;;6159270;22;45834;-80
2021/11/02 23:29:21;;;;;;;;;24.00;21.00;;;;;;;;6158156;23;45512;-80
2021/11/02 23:31:56;;;;;;;;;20.33;20.00;;;;;;;;6131075;23;46708;-80
2021/11/02 23:34:21;;;;;;;;;24.50;22.00;;;;;;;;6155991;23;44914;-80
2021/11/02 23:36:47;;;;;;;;;17.00;15.33;;;;;;;;6158411;23;45418;-80
2021/11/02 23:39:12;;;;;;;;;14.33;14.33;;;;;;;;6158180;23;45486;-80
2021/11/02 23:41:45;;;;;;;;;22.33;21.00;;;;;;;;6157883;23;46977;-80
2021/11/02 23:44:13;;;;;;;;;18.67;17.67;;;;;;;;6158106;23;45454;-80
2021/11/02 23:46:45;;;;;;;;;19.33;19.33;;;;;;;;6130782;23;45416;-80
2021/11/02 23:49:31;;;;;;;;;19.33;18.00;;;;;;;;6156882;23;45331;-80
2021/11/02 23:52:08;;;;;;;;;17.67;17.67;;;;;;;;6129820;23;47009;-80
2021/11/02 23:54:44;;;;;;;;;17.67;16.00;;;;;;;;6156155;23;45540;-80
2021/11/02 23:57:09;;;;;;;;;16.00;16.00;;;;;;;;6156849;23;45357;-80
2021/11/02 23:59:46;;;;;;;;;14.33;14.33;;;;;;;;6134588;23;45145;-80
